sensor_id;sensor_type;location;lat;lon;timestamp;P1;durP1;ratioP1;P2;durP2;ratioP2
71769;SDS011;66386;52.122;5.420;2023-05-31T00:02:16;5.53;;;1.80;;
71769;SDS011;66386;52.122;5.420;2023-05-31T00:04:43;4.53;;;1.90;;
71769;SDS011;66386;52.122;5.420;2023-05-31T00:07:10;5.20;;;2.57;;
71769;SDS011;66386;52.122;5.420;2023-05-31T00:09:36;6.03;;;2.25;;
71769;SDS011;66386;52.122;5.420;2023-05-31T00:12:03;3.88;;;2.13;;
71769;SDS011;66386;52.122;5.420;2023-05-31T00:14:29;2.70;;;1.92;;
71769;SDS011;66386;52.122;5.420;2023-05-31T00:16:56;6.30;;;2.03;;
71769;SDS011;66386;52.122;5.420;2023-05-31T00:19:26;3.57;;;1.77;;
71769;SDS011;66386;52.122;5.420;2023-05-31T00:21:52;7.18;;;2.60;;
71769;SDS011;66386;52.122;5.420;2023-05-31T00:24:19;4.00;;;2.08;;
71769;SDS011;66386;52.122;5.420;2023-05-31T00:26:46;6.82;;;2.58;;
71769;SDS011;66386;52.122;5.420;2023-05-31T00:29:12;6.80;;;2.40;;
71769;SDS011;66386;52.122;5.420;2023-05-31T00:31:40;5.10;;;2.20;;
71769;SDS011;66386;52.122;5.420;2023-05-31T00:34:07;5.18;;;2.20;;
71769;SDS011;66386;52.122;5.420;2023-05-31T00:36:36;3.08;;;1.92;;
71769;SDS011;66386;52.122;5.420;2023-05-31T00:39:02;5.38;;;2.47;;
71769;SDS011;66386;52.122;5.420;2023-05-31T00:41:29;4.25;;;2.10;;
71769;SDS011;66386;52.122;5.420;2023-05-31T00:43:56;5.87;;;2.23;;
71769;SDS011;66386;52.122;5.420;2023-05-31T00:46:27;3.65;;;2.08;;
71769;SDS011;66386;52.122;5.420;2023-05-31T00:48:57;4.50;;;2.83;;
71769;SDS011;66386;52.122;5.420;2023-05-31T00:51:24;4.22;;;2.70;;
71769;SDS011;66386;52.122;5.420;2023-05-31T00:53:53;5.20;;;2.28;;
71769;SDS011;66386;52.122;5.420;2023-05-31T00:56:20;4.60;;;2.30;;
71769;SDS011;66386;52.122;5.420;2023-05-31T00:58:48;7.45;;;2.78;;
71769;SDS011;66386;52.122;5.420;2023-05-31T01:01:20;6.25;;;2.60;;
71769;SDS011;66386;52.122;5.420;2023-05-31T01:03:47;4.30;;;1.95;;
71769;SDS011;66386;52.122;5.420;2023-05-31T01:06:14;5.20;;;2.20;;
71769;SDS011;66386;52.122;5.420;2023-05-31T01:08:41;3.87;;;2.20;;
71769;SDS011;66386;52.122;5.420;2023-05-31T01:11:26;5.40;;;2.55;;
71769;SDS011;66386;52.122;5.420;2023-05-31T01:16:53;5.82;;;2.40;;
71769;SDS011;66386;52.122;5.420;2023-05-31T01:19:41;5.60;;;2.20;;
71769;SDS011;66386;52.122;5.420;2023-05-31T01:22:25;4.03;;;2.43;;
71769;SDS011;66386;52.122;5.420;2023-05-31T01:27:26;5.88;;;2.30;;
71769;SDS011;66386;52.122;5.420;2023-05-31T01:29:54;3.05;;;2.30;;
71769;SDS011;66386;52.122;5.420;2023-05-31T01:32:22;5.60;;;2.53;;
71769;SDS011;66386;52.122;5.420;2023-05-31T01:34:50;5.13;;;2.63;;
71769;SDS011;66386;52.122;5.420;2023-05-31T01:37:16;4.50;;;2.05;;
71769;SDS011;66386;52.122;5.420;2023-05-31T01:39:43;5.78;;;2.60;;
71769;SDS011;66386;52.122;5.420;2023-05-31T01:42:09;3.85;;;2.28;;
71769;SDS011;66386;52.122;5.420;2023-05-31T01:44:36;6.40;;;2.42;;
71769;SDS011;66386;52.122;5.420;2023-05-31T01:47:06;3.53;;;2.40;;
71769;SDS011;66386;52.122;5.420;2023-05-31T01:49:35;5.25;;;2.80;;
71769;SDS011;66386;52.122;5.420;2023-05-31T01:52:04;5.88;;;2.25;;
71769;SDS011;66386;52.122;5.420;2023-05-31T01:54:32;7.72;;;2.70;;
71769;SDS011;66386;52.122;5.420;2023-05-31T01:56:59;5.00;;;2.20;;
71769;SDS011;66386;52.122;5.420;2023-05-31T01:59:29;2.87;;;2.00;;
71769;SDS011;66386;52.122;5.420;2023-05-31T02:01:56;5.45;;;2.75;;
71769;SDS011;66386;52.122;5.420;2023-05-31T02:04:23;5.13;;;2.47;;
71769;SDS011;66386;52.122;5.420;2023-05-31T02:06:50;7.28;;;2.72;;
71769;SDS011;66386;52.122;5.420;2023-05-31T02:09:18;5.38;;;2.53;;
71769;SDS011;66386;52.122;5.420;2023-05-31T02:11:46;4.23;;;2.10;;
71769;SDS011;66386;52.122;5.420;2023-05-31T02:14:12;3.78;;;2.17;;
71769;SDS011;66386;52.122;5.420;2023-05-31T02:16:39;4.15;;;2.50;;
71769;SDS011;66386;52.122;5.420;2023-05-31T02:19:05;5.05;;;2.67;;
71769;SDS011;66386;52.122;5.420;2023-05-31T02:21:32;4.18;;;2.47;;
71769;SDS011;66386;52.122;5.420;2023-05-31T02:24:01;5.30;;;2.57;;
71769;SDS011;66386;52.122;5.420;2023-05-31T02:26:28;3.63;;;1.92;;
71769;SDS011;66386;52.122;5.420;2023-05-31T02:28:54;8.45;;;2.67;;
71769;SDS011;66386;52.122;5.420;2023-05-31T02:31:21;7.07;;;2.65;;
71769;SDS011;66386;52.122;5.420;2023-05-31T02:33:48;3.33;;;2.08;;
71769;SDS011;66386;52.122;5.420;2023-05-31T02:36:14;5.50;;;2.20;;
71769;SDS011;66386;52.122;5.420;2023-05-31T02:38:41;4.68;;;2.47;;
71769;SDS011;66386;52.122;5.420;2023-05-31T02:41:09;8.20;;;2.78;;
71769;SDS011;66386;52.122;5.420;2023-05-31T02:43:36;6.63;;;2.65;;
71769;SDS011;66386;52.122;5.420;2023-05-31T02:46:02;5.20;;;2.45;;
71769;SDS011;66386;52.122;5.420;2023-05-31T02:48:29;3.63;;;2.10;;
71769;SDS011;66386;52.122;5.420;2023-05-31T02:50:55;6.32;;;2.45;;
71769;SDS011;66386;52.122;5.420;2023-05-31T02:53:22;4.05;;;2.47;;
71769;SDS011;66386;52.122;5.420;2023-05-31T02:55:48;5.25;;;2.58;;
71769;SDS011;66386;52.122;5.420;2023-05-31T02:58:15;6.03;;;2.65;;
71769;SDS011;66386;52.122;5.420;2023-05-31T03:00:42;5.37;;;2.30;;
71769;SDS011;66386;52.122;5.420;2023-05-31T03:03:10;5.00;;;2.70;;
71769;SDS011;66386;52.122;5.420;2023-05-31T03:05:38;5.18;;;2.67;;
71769;SDS011;66386;52.122;5.420;2023-05-31T03:08:05;4.07;;;2.63;;
71769;SDS011;66386;52.122;5.420;2023-05-31T03:10:31;7.63;;;2.75;;
71769;SDS011;66386;52.122;5.420;2023-05-31T03:12:58;3.93;;;2.63;;
71769;SDS011;66386;52.122;5.420;2023-05-31T03:15:25;5.82;;;3.40;;
71769;SDS011;66386;52.122;5.420;2023-05-31T03:17:51;6.35;;;2.83;;
71769;SDS011;66386;52.122;5.420;2023-05-31T03:20:18;6.65;;;2.83;;
71769;SDS011;66386;52.122;5.420;2023-05-31T03:22:45;5.18;;;2.70;;
71769;SDS011;66386;52.122;5.420;2023-05-31T03:25:11;7.30;;;2.60;;
71769;SDS011;66386;52.122;5.420;2023-05-31T03:27:38;9.88;;;3.08;;
71769;SDS011;66386;52.122;5.420;2023-05-31T03:30:04;7.50;;;2.75;;
71769;SDS011;66386;52.122;5.420;2023-05-31T03:32:32;7.25;;;3.00;;
71769;SDS011;66386;52.122;5.420;2023-05-31T03:35:02;6.78;;;3.08;;
71769;SDS011;66386;52.122;5.420;2023-05-31T03:37:29;4.97;;;3.00;;
71769;SDS011;66386;52.122;5.420;2023-05-31T03:39:56;5.50;;;3.10;;
71769;SDS011;66386;52.122;5.420;2023-05-31T03:42:22;4.13;;;2.88;;
71769;SDS011;66386;52.122;5.420;2023-05-31T03:44:49;5.30;;;2.40;;
71769;SDS011;66386;52.122;5.420;2023-05-31T03:47:15;5.63;;;2.97;;
71769;SDS011;66386;52.122;5.420;2023-05-31T03:49:42;6.03;;;3.07;;
71769;SDS011;66386;52.122;5.420;2023-05-31T03:52:09;5.28;;;2.75;;
71769;SDS011;66386;52.122;5.420;2023-05-31T03:54:39;6.32;;;2.85;;
71769;SDS011;66386;52.122;5.420;2023-05-31T03:57:06;4.88;;;2.67;;
71769;SDS011;66386;52.122;5.420;2023-05-31T03:59:36;5.63;;;3.13;;
71769;SDS011;66386;52.122;5.420;2023-05-31T04:02:03;6.00;;;2.77;;
71769;SDS011;66386;52.122;5.420;2023-05-31T04:04:30;6.82;;;3.20;;
71769;SDS011;66386;52.122;5.420;2023-05-31T04:06:57;5.47;;;2.80;;
71769;SDS011;66386;52.122;5.420;2023-05-31T04:09:24;5.13;;;2.80;;
71769;SDS011;66386;52.122;5.420;2023-05-31T04:11:54;6.72;;;3.05;;
71769;SDS011;66386;52.122;5.420;2023-05-31T04:14:21;6.97;;;3.00;;
71769;SDS011;66386;52.122;5.420;2023-05-31T04:16:48;4.78;;;2.88;;
71769;SDS011;66386;52.122;5.420;2023-05-31T04:19:14;5.22;;;3.10;;
71769;SDS011;66386;52.122;5.420;2023-05-31T04:21:41;5.00;;;3.33;;
71769;SDS011;66386;52.122;5.420;2023-05-31T04:24:07;5.15;;;2.97;;
71769;SDS011;66386;52.122;5.420;2023-05-31T04:26:33;10.27;;;3.47;;
71769;SDS011;66386;52.122;5.420;2023-05-31T04:29:00;6.18;;;3.33;;
71769;SDS011;66386;52.122;5.420;2023-05-31T04:31:27;6.28;;;3.50;;
71769;SDS011;66386;52.122;5.420;2023-05-31T04:34:15;6.55;;;3.20;;
71769;SDS011;66386;52.122;5.420;2023-05-31T04:36:45;7.57;;;3.63;;
71769;SDS011;66386;52.122;5.420;2023-05-31T04:39:16;6.83;;;3.23;;
71769;SDS011;66386;52.122;5.420;2023-05-31T04:41:43;6.07;;;3.30;;
71769;SDS011;66386;52.122;5.420;2023-05-31T04:44:10;7.10;;;4.10;;
71769;SDS011;66386;52.122;5.420;2023-05-31T04:46:36;5.00;;;3.25;;
71769;SDS011;66386;52.122;5.420;2023-05-31T04:49:03;9.35;;;3.35;;
71769;SDS011;66386;52.122;5.420;2023-05-31T04:51:30;8.27;;;3.67;;
71769;SDS011;66386;52.122;5.420;2023-05-31T04:53:58;7.18;;;3.50;;
71769;SDS011;66386;52.122;5.420;2023-05-31T04:56:25;8.05;;;3.95;;
71769;SDS011;66386;52.122;5.420;2023-05-31T04:58:52;7.18;;;3.78;;
71769;SDS011;66386;52.122;5.420;2023-05-31T05:01:18;8.35;;;4.03;;
71769;SDS011;66386;52.122;5.420;2023-05-31T05:03:44;10.93;;;3.90;;
71769;SDS011;66386;52.122;5.420;2023-05-31T05:06:15;6.38;;;3.67;;
71769;SDS011;66386;52.122;5.420;2023-05-31T05:08:42;6.85;;;3.90;;
71769;SDS011;66386;52.122;5.420;2023-05-31T05:11:10;8.75;;;5.03;;
71769;SDS011;66386;52.122;5.420;2023-05-31T05:13:37;10.52;;;4.03;;
71769;SDS011;66386;52.122;5.420;2023-05-31T05:16:04;8.30;;;3.53;;
71769;SDS011;66386;52.122;5.420;2023-05-31T05:18:30;11.45;;;4.30;;
71769;SDS011;66386;52.122;5.420;2023-05-31T05:20:57;8.38;;;3.55;;
71769;SDS011;66386;52.122;5.420;2023-05-31T05:23:24;8.25;;;4.28;;
71769;SDS011;66386;52.122;5.420;2023-05-31T05:25:51;6.75;;;3.53;;
71769;SDS011;66386;52.122;5.420;2023-05-31T05:28:18;7.97;;;3.90;;
71769;SDS011;66386;52.122;5.420;2023-05-31T05:30:44;10.38;;;4.05;;
71769;SDS011;66386;52.122;5.420;2023-05-31T05:33:11;10.13;;;4.57;;
71769;SDS011;66386;52.122;5.420;2023-05-31T05:35:37;7.85;;;4.30;;
71769;SDS011;66386;52.122;5.420;2023-05-31T05:38:04;9.73;;;3.60;;
71769;SDS011;66386;52.122;5.420;2023-05-31T05:40:31;10.73;;;4.50;;
71769;SDS011;66386;52.122;5.420;2023-05-31T05:42:57;7.32;;;3.58;;
71769;SDS011;66386;52.122;5.420;2023-05-31T05:45:26;8.93;;;4.15;;
71769;SDS011;66386;52.122;5.420;2023-05-31T05:47:52;10.82;;;4.53;;
71769;SDS011;66386;52.122;5.420;2023-05-31T05:50:22;9.88;;;4.07;;
71769;SDS011;66386;52.122;5.420;2023-05-31T05:52:49;7.00;;;4.10;;
71769;SDS011;66386;52.122;5.420;2023-05-31T05:55:16;10.18;;;4.32;;
71769;SDS011;66386;52.122;5.420;2023-05-31T05:57:43;8.82;;;4.22;;
71769;SDS011;66386;52.122;5.420;2023-05-31T06:00:10;9.07;;;4.35;;
71769;SDS011;66386;52.122;5.420;2023-05-31T06:02:37;7.55;;;4.38;;
71769;SDS011;66386;52.122;5.420;2023-05-31T06:05:04;9.87;;;4.30;;
71769;SDS011;66386;52.122;5.420;2023-05-31T06:07:31;7.53;;;4.03;;
71769;SDS011;66386;52.122;5.420;2023-05-31T06:09:57;8.63;;;4.28;;
71769;SDS011;66386;52.122;5.420;2023-05-31T06:12:25;11.63;;;4.68;;
71769;SDS011;66386;52.122;5.420;2023-05-31T06:14:52;12.23;;;4.97;;
71769;SDS011;66386;52.122;5.420;2023-05-31T06:17:20;8.17;;;4.23;;
71769;SDS011;66386;52.122;5.420;2023-05-31T06:19:48;8.38;;;4.70;;
71769;SDS011;66386;52.122;5.420;2023-05-31T06:22:14;7.65;;;4.32;;
71769;SDS011;66386;52.122;5.420;2023-05-31T06:24:41;8.32;;;4.40;;
71769;SDS011;66386;52.122;5.420;2023-05-31T06:27:08;11.00;;;5.30;;
71769;SDS011;66386;52.122;5.420;2023-05-31T06:29:35;7.20;;;4.97;;
71769;SDS011;66386;52.122;5.420;2023-05-31T06:32:02;9.23;;;4.43;;
71769;SDS011;66386;52.122;5.420;2023-05-31T06:34:29;8.35;;;4.78;;
71769;SDS011;66386;52.122;5.420;2023-05-31T06:36:58;8.43;;;5.18;;
71769;SDS011;66386;52.122;5.420;2023-05-31T06:39:26;9.35;;;5.28;;
71769;SDS011;66386;52.122;5.420;2023-05-31T06:41:53;7.73;;;4.63;;
71769;SDS011;66386;52.122;5.420;2023-05-31T06:44:20;6.65;;;4.95;;
71769;SDS011;66386;52.122;5.420;2023-05-31T06:46:46;8.38;;;5.35;;
71769;SDS011;66386;52.122;5.420;2023-05-31T06:49:12;9.85;;;5.50;;
71769;SDS011;66386;52.122;5.420;2023-05-31T06:51:39;8.32;;;5.63;;
71769;SDS011;66386;52.122;5.420;2023-05-31T06:54:05;7.23;;;4.90;;
71769;SDS011;66386;52.122;5.420;2023-05-31T06:56:32;6.88;;;5.07;;
71769;SDS011;66386;52.122;5.420;2023-05-31T06:58:58;8.00;;;5.35;;
71769;SDS011;66386;52.122;5.420;2023-05-31T07:01:25;10.07;;;5.78;;
71769;SDS011;66386;52.122;5.420;2023-05-31T07:03:52;6.15;;;5.20;;
71769;SDS011;66386;52.122;5.420;2023-05-31T07:06:18;7.80;;;5.20;;
71769;SDS011;66386;52.122;5.420;2023-05-31T07:08:47;8.48;;;5.35;;
71769;SDS011;66386;52.122;5.420;2023-05-31T07:11:14;8.65;;;5.50;;
71769;SDS011;66386;52.122;5.420;2023-05-31T07:13:40;7.35;;;5.45;;
71769;SDS011;66386;52.122;5.420;2023-05-31T07:16:07;8.27;;;5.35;;
71769;SDS011;66386;52.122;5.420;2023-05-31T07:18:33;6.33;;;4.87;;
71769;SDS011;66386;52.122;5.420;2023-05-31T07:21:00;8.35;;;4.85;;
71769;SDS011;66386;52.122;5.420;2023-05-31T07:23:27;7.10;;;4.40;;
71769;SDS011;66386;52.122;5.420;2023-05-31T07:25:53;6.53;;;5.03;;
71769;SDS011;66386;52.122;5.420;2023-05-31T07:28:20;7.80;;;4.68;;
71769;SDS011;66386;52.122;5.420;2023-05-31T07:30:46;8.57;;;4.80;;
71769;SDS011;66386;52.122;5.420;2023-05-31T07:33:13;7.25;;;4.43;;
71769;SDS011;66386;52.122;5.420;2023-05-31T07:35:51;8.52;;;4.72;;
71769;SDS011;66386;52.122;5.420;2023-05-31T07:38:23;6.75;;;4.72;;
71769;SDS011;66386;52.122;5.420;2023-05-31T07:40:50;6.80;;;5.05;;
71769;SDS011;66386;52.122;5.420;2023-05-31T07:43:17;6.47;;;4.67;;
71769;SDS011;66386;52.122;5.420;2023-05-31T07:45:48;8.15;;;5.05;;
71769;SDS011;66386;52.122;5.420;2023-05-31T07:48:16;7.32;;;4.78;;
71769;SDS011;66386;52.122;5.420;2023-05-31T07:50:44;7.90;;;4.30;;
71769;SDS011;66386;52.122;5.420;2023-05-31T07:53:11;7.70;;;4.70;;
71769;SDS011;66386;52.122;5.420;2023-05-31T07:55:38;6.73;;;4.33;;
71769;SDS011;66386;52.122;5.420;2023-05-31T07:58:04;8.13;;;4.63;;
71769;SDS011;66386;52.122;5.420;2023-05-31T08:00:31;5.70;;;4.32;;
71769;SDS011;66386;52.122;5.420;2023-05-31T08:03:00;7.10;;;4.40;;
71769;SDS011;66386;52.122;5.420;2023-05-31T08:05:27;4.90;;;4.40;;
71769;SDS011;66386;52.122;5.420;2023-05-31T08:07:53;8.37;;;4.40;;
71769;SDS011;66386;52.122;5.420;2023-05-31T08:10:20;6.20;;;4.32;;
71769;SDS011;66386;52.122;5.420;2023-05-31T08:12:46;7.22;;;4.32;;
71769;SDS011;66386;52.122;5.420;2023-05-31T08:15:13;7.57;;;4.68;;
71769;SDS011;66386;52.122;5.420;2023-05-31T08:17:39;5.60;;;4.47;;
71769;SDS011;66386;52.122;5.420;2023-05-31T08:20:08;8.50;;;5.33;;
71769;SDS011;66386;52.122;5.420;2023-05-31T08:22:36;6.20;;;4.32;;
71769;SDS011;66386;52.122;5.420;2023-05-31T08:25:03;7.10;;;4.13;;
71769;SDS011;66386;52.122;5.420;2023-05-31T08:27:29;7.03;;;4.75;;
71769;SDS011;66386;52.122;5.420;2023-05-31T08:29:56;7.25;;;5.13;;
71769;SDS011;66386;52.122;5.420;2023-05-31T08:32:23;8.80;;;5.13;;
71769;SDS011;66386;52.122;5.420;2023-05-31T08:34:49;6.82;;;4.78;;
71769;SDS011;66386;52.122;5.420;2023-05-31T08:37:16;9.23;;;5.22;;
71769;SDS011;66386;52.122;5.420;2023-05-31T08:39:42;9.20;;;4.90;;
71769;SDS011;66386;52.122;5.420;2023-05-31T08:42:16;7.35;;;4.70;;
71769;SDS011;66386;52.122;5.420;2023-05-31T08:44:49;9.30;;;5.03;;
71769;SDS011;66386;52.122;5.420;2023-05-31T08:47:23;6.68;;;4.43;;
71769;SDS011;66386;52.122;5.420;2023-05-31T08:49:57;8.40;;;5.00;;
71769;SDS011;66386;52.122;5.420;2023-05-31T08:52:25;6.72;;;5.05;;
71769;SDS011;66386;52.122;5.420;2023-05-31T08:54:52;7.07;;;4.70;;
71769;SDS011;66386;52.122;5.420;2023-05-31T08:57:20;6.67;;;4.90;;
71769;SDS011;66386;52.122;5.420;2023-05-31T08:59:47;7.22;;;5.00;;
71769;SDS011;66386;52.122;5.420;2023-05-31T09:02:15;6.00;;;4.85;;
71769;SDS011;66386;52.122;5.420;2023-05-31T09:04:43;10.05;;;5.43;;
71769;SDS011;66386;52.122;5.420;2023-05-31T09:07:10;10.70;;;5.97;;
71769;SDS011;66386;52.122;5.420;2023-05-31T09:09:36;8.80;;;4.80;;
71769;SDS011;66386;52.122;5.420;2023-05-31T09:12:03;8.68;;;5.65;;
71769;SDS011;66386;52.122;5.420;2023-05-31T09:14:29;7.00;;;4.80;;
71769;SDS011;66386;52.122;5.420;2023-05-31T09:16:57;7.95;;;5.10;;
71769;SDS011;66386;52.122;5.420;2023-05-31T09:19:24;8.88;;;5.80;;
71769;SDS011;66386;52.122;5.420;2023-05-31T09:21:51;8.60;;;5.03;;
71769;SDS011;66386;52.122;5.420;2023-05-31T09:24:18;10.93;;;5.50;;
71769;SDS011;66386;52.122;5.420;2023-05-31T09:26:46;10.63;;;5.13;;
71769;SDS011;66386;52.122;5.420;2023-05-31T09:29:14;7.85;;;4.80;;
71769;SDS011;66386;52.122;5.420;2023-05-31T09:31:42;8.90;;;5.28;;
71769;SDS011;66386;52.122;5.420;2023-05-31T09:34:22;9.17;;;4.73;;
71769;SDS011;66386;52.122;5.420;2023-05-31T09:36:51;7.35;;;5.32;;
71769;SDS011;66386;52.122;5.420;2023-05-31T09:39:18;12.77;;;6.00;;
71769;SDS011;66386;52.122;5.420;2023-05-31T09:41:48;7.65;;;5.32;;
71769;SDS011;66386;52.122;5.420;2023-05-31T09:44:17;8.25;;;5.78;;
71769;SDS011;66386;52.122;5.420;2023-05-31T09:46:47;8.90;;;5.30;;
71769;SDS011;66386;52.122;5.420;2023-05-31T09:49:13;9.32;;;5.47;;
71769;SDS011;66386;52.122;5.420;2023-05-31T09:51:40;7.90;;;5.50;;
71769;SDS011;66386;52.122;5.420;2023-05-31T09:54:16;9.50;;;4.90;;
71769;SDS011;66386;52.122;5.420;2023-05-31T09:56:43;8.07;;;5.25;;
71769;SDS011;66386;52.122;5.420;2023-05-31T09:59:10;6.73;;;4.77;;
71769;SDS011;66386;52.122;5.420;2023-05-31T10:01:37;9.00;;;5.47;;
71769;SDS011;66386;52.122;5.420;2023-05-31T10:04:04;10.00;;;6.32;;
71769;SDS011;66386;52.122;5.420;2023-05-31T10:06:31;8.60;;;4.65;;
71769;SDS011;66386;52.122;5.420;2023-05-31T10:09:04;9.85;;;4.88;;
71769;SDS011;66386;52.122;5.420;2023-05-31T10:11:35;7.07;;;5.40;;
71769;SDS011;66386;52.122;5.420;2023-05-31T10:14:05;5.57;;;4.63;;
71769;SDS011;66386;52.122;5.420;2023-05-31T10:16:35;8.93;;;5.28;;
71769;SDS011;66386;52.122;5.420;2023-05-31T10:19:10;8.63;;;5.03;;
71769;SDS011;66386;52.122;5.420;2023-05-31T10:21:41;8.65;;;5.28;;
71769;SDS011;66386;52.122;5.420;2023-05-31T10:24:13;8.40;;;4.67;;
71769;SDS011;66386;52.122;5.420;2023-05-31T10:26:59;8.25;;;4.72;;
71769;SDS011;66386;52.122;5.420;2023-05-31T10:29:44;8.25;;;5.03;;
71769;SDS011;66386;52.122;5.420;2023-05-31T10:32:24;10.75;;;5.05;;
71769;SDS011;66386;52.122;5.420;2023-05-31T10:34:55;8.02;;;5.45;;
71769;SDS011;66386;52.122;5.420;2023-05-31T10:37:23;7.10;;;4.73;;
71769;SDS011;66386;52.122;5.420;2023-05-31T10:39:55;7.80;;;4.90;;
71769;SDS011;66386;52.122;5.420;2023-05-31T10:42:27;9.85;;;5.35;;
71769;SDS011;66386;52.122;5.420;2023-05-31T10:47:45;7.18;;;4.40;;
71769;SDS011;66386;52.122;5.420;2023-05-31T10:50:20;7.63;;;4.03;;
71769;SDS011;66386;52.122;5.420;2023-05-31T10:52:48;8.40;;;4.65;;
71769;SDS011;66386;52.122;5.420;2023-05-31T10:55:19;9.13;;;4.15;;
71769;SDS011;66386;52.122;5.420;2023-05-31T10:57:52;9.32;;;5.03;;
71769;SDS011;66386;52.122;5.420;2023-05-31T11:00:20;7.65;;;4.28;;
71769;SDS011;66386;52.122;5.420;2023-05-31T11:02:52;7.90;;;3.90;;
71769;SDS011;66386;52.122;5.420;2023-05-31T11:05:23;6.60;;;3.75;;
71769;SDS011;66386;52.122;5.420;2023-05-31T11:07:54;6.07;;;3.55;;
71769;SDS011;66386;52.122;5.420;2023-05-31T11:10:28;11.95;;;4.68;;
71769;SDS011;66386;52.122;5.420;2023-05-31T11:12:58;13.73;;;4.60;;
71769;SDS011;66386;52.122;5.420;2023-05-31T11:15:39;7.63;;;3.57;;
71769;SDS011;66386;52.122;5.420;2023-05-31T11:18:08;9.50;;;3.95;;
71769;SDS011;66386;52.122;5.420;2023-05-31T11:20:36;8.38;;;3.95;;
71769;SDS011;66386;52.122;5.420;2023-05-31T11:34:30;7.95;;;3.50;;
71769;SDS011;66386;52.122;5.420;2023-05-31T11:37:00;7.10;;;3.42;;
71769;SDS011;66386;52.122;5.420;2023-05-31T11:39:29;6.18;;;3.25;;
71769;SDS011;66386;52.122;5.420;2023-05-31T11:41:57;6.00;;;3.30;;
71769;SDS011;66386;52.122;5.420;2023-05-31T11:44:28;6.63;;;3.80;;
71769;SDS011;66386;52.122;5.420;2023-05-31T11:47:04;11.38;;;3.60;;
71769;SDS011;66386;52.122;5.420;2023-05-31T11:49:32;5.10;;;2.92;;
71769;SDS011;66386;52.122;5.420;2023-05-31T11:52:02;6.15;;;3.28;;
71769;SDS011;66386;52.122;5.420;2023-05-31T11:54:30;6.97;;;3.20;;
71769;SDS011;66386;52.122;5.420;2023-05-31T11:56:59;5.00;;;2.60;;
71769;SDS011;66386;52.122;5.420;2023-05-31T11:59:30;4.30;;;3.17;;
71769;SDS011;66386;52.122;5.420;2023-05-31T12:01:59;7.93;;;3.15;;
71769;SDS011;66386;52.122;5.420;2023-05-31T12:04:30;3.70;;;2.85;;
71769;SDS011;66386;52.122;5.420;2023-05-31T12:06:57;7.57;;;2.60;;
71769;SDS011;66386;52.122;5.420;2023-05-31T12:09:24;5.30;;;2.90;;
71769;SDS011;66386;52.122;5.420;2023-05-31T12:11:51;6.00;;;3.38;;
71769;SDS011;66386;52.122;5.420;2023-05-31T12:14:19;8.85;;;3.13;;
71769;SDS011;66386;52.122;5.420;2023-05-31T12:16:46;4.78;;;2.60;;
71769;SDS011;66386;52.122;5.420;2023-05-31T12:19:15;5.57;;;2.77;;
71769;SDS011;66386;52.122;5.420;2023-05-31T12:21:44;5.72;;;3.53;;
71769;SDS011;66386;52.122;5.420;2023-05-31T12:24:11;5.35;;;2.22;;
71769;SDS011;66386;52.122;5.420;2023-05-31T12:26:39;7.55;;;2.50;;
71769;SDS011;66386;52.122;5.420;2023-05-31T12:29:06;9.32;;;2.50;;
71769;SDS011;66386;52.122;5.420;2023-05-31T12:31:36;5.43;;;2.57;;
71769;SDS011;66386;52.122;5.420;2023-05-31T12:37:04;6.38;;;2.30;;
71769;SDS011;66386;52.122;5.420;2023-05-31T12:39:24;4.85;;;2.35;;
71769;SDS011;66386;52.122;5.420;2023-05-31T12:41:51;4.80;;;2.55;;
71769;SDS011;66386;52.122;5.420;2023-05-31T12:44:18;5.70;;;2.60;;
71769;SDS011;66386;52.122;5.420;2023-05-31T12:46:47;5.38;;;2.30;;
71769;SDS011;66386;52.122;5.420;2023-05-31T12:49:21;6.93;;;2.42;;
71769;SDS011;66386;52.122;5.420;2023-05-31T12:54:38;7.68;;;3.00;;
71769;SDS011;66386;52.122;5.420;2023-05-31T12:57:06;5.13;;;2.70;;
71769;SDS011;66386;52.122;5.420;2023-05-31T12:59:37;6.85;;;2.55;;
71769;SDS011;66386;52.122;5.420;2023-05-31T13:02:04;3.63;;;2.60;;
71769;SDS011;66386;52.122;5.420;2023-05-31T13:04:31;7.72;;;2.60;;
71769;SDS011;66386;52.122;5.420;2023-05-31T13:06:59;6.28;;;2.60;;
71769;SDS011;66386;52.122;5.420;2023-05-31T13:09:27;3.53;;;2.23;;
71769;SDS011;66386;52.122;5.420;2023-05-31T13:11:54;5.68;;;2.40;;
71769;SDS011;66386;52.122;5.420;2023-05-31T13:14:20;4.50;;;2.30;;
71769;SDS011;66386;52.122;5.420;2023-05-31T13:16:52;5.32;;;2.55;;
71769;SDS011;66386;52.122;5.420;2023-05-31T13:19:19;5.00;;;2.50;;
71769;SDS011;66386;52.122;5.420;2023-05-31T13:21:46;5.77;;;2.30;;
71769;SDS011;66386;52.122;5.420;2023-05-31T13:24:12;3.80;;;2.17;;
71769;SDS011;66386;52.122;5.420;2023-05-31T13:26:40;6.35;;;2.17;;
71769;SDS011;66386;52.122;5.420;2023-05-31T13:29:07;4.63;;;2.10;;
71769;SDS011;66386;52.122;5.420;2023-05-31T13:31:34;4.03;;;2.10;;
71769;SDS011;66386;52.122;5.420;2023-05-31T13:34:00;4.53;;;2.43;;
71769;SDS011;66386;52.122;5.420;2023-05-31T13:36:27;5.15;;;2.03;;
71769;SDS011;66386;52.122;5.420;2023-05-31T13:38:53;5.50;;;2.30;;
71769;SDS011;66386;52.122;5.420;2023-05-31T13:41:20;6.55;;;2.17;;
71769;SDS011;66386;52.122;5.420;2023-05-31T13:43:48;8.18;;;2.03;;
71769;SDS011;66386;52.122;5.420;2023-05-31T13:46:16;4.17;;;1.90;;
71769;SDS011;66386;52.122;5.420;2023-05-31T13:48:44;5.90;;;2.00;;
71769;SDS011;66386;52.122;5.420;2023-05-31T13:51:10;4.28;;;2.05;;
71769;SDS011;66386;52.122;5.420;2023-05-31T13:53:42;5.95;;;2.33;;
71769;SDS011;66386;52.122;5.420;2023-05-31T13:56:08;5.07;;;2.63;;
71769;SDS011;66386;52.122;5.420;2023-05-31T13:58:35;5.63;;;2.40;;
71769;SDS011;66386;52.122;5.420;2023-05-31T14:01:05;5.93;;;2.30;;
71769;SDS011;66386;52.122;5.420;2023-05-31T14:03:36;6.72;;;2.95;;
71769;SDS011;66386;52.122;5.420;2023-05-31T14:06:04;3.45;;;2.35;;
71769;SDS011;66386;52.122;5.420;2023-05-31T14:08:30;5.40;;;2.30;;
71769;SDS011;66386;52.122;5.420;2023-05-31T14:10:57;4.10;;;2.17;;
71769;SDS011;66386;52.122;5.420;2023-05-31T14:13:24;3.85;;;2.10;;
71769;SDS011;66386;52.122;5.420;2023-05-31T14:15:51;4.50;;;2.63;;
71769;SDS011;66386;52.122;5.420;2023-05-31T14:18:18;6.13;;;3.47;;
71769;SDS011;66386;52.122;5.420;2023-05-31T14:20:45;7.88;;;3.58;;
71769;SDS011;66386;52.122;5.420;2023-05-31T14:23:12;6.67;;;3.10;;
71769;SDS011;66386;52.122;5.420;2023-05-31T14:25:38;5.18;;;3.25;;
71769;SDS011;66386;52.122;5.420;2023-05-31T14:28:05;7.60;;;3.70;;
71769;SDS011;66386;52.122;5.420;2023-05-31T14:30:32;10.32;;;3.75;;
71769;SDS011;66386;52.122;5.420;2023-05-31T14:32:58;6.07;;;3.83;;
71769;SDS011;66386;52.122;5.420;2023-05-31T14:35:26;5.90;;;3.63;;
71769;SDS011;66386;52.122;5.420;2023-05-31T14:37:53;8.02;;;3.17;;
71769;SDS011;66386;52.122;5.420;2023-05-31T14:40:39;7.97;;;4.18;;
71769;SDS011;66386;52.122;5.420;2023-05-31T14:43:06;8.30;;;3.97;;
71769;SDS011;66386;52.122;5.420;2023-05-31T14:45:32;10.65;;;4.28;;
71769;SDS011;66386;52.122;5.420;2023-05-31T14:47:59;8.67;;;4.20;;
71769;SDS011;66386;52.122;5.420;2023-05-31T14:50:26;8.27;;;3.95;;
71769;SDS011;66386;52.122;5.420;2023-05-31T14:52:53;7.35;;;4.35;;
71769;SDS011;66386;52.122;5.420;2023-05-31T14:55:19;6.80;;;4.15;;
71769;SDS011;66386;52.122;5.420;2023-05-31T14:57:46;9.27;;;3.95;;
71769;SDS011;66386;52.122;5.420;2023-05-31T15:00:13;6.07;;;3.90;;
71769;SDS011;66386;52.122;5.420;2023-05-31T15:02:40;4.95;;;3.85;;
71769;SDS011;66386;52.122;5.420;2023-05-31T15:05:07;7.05;;;3.85;;
71769;SDS011;66386;52.122;5.420;2023-05-31T15:07:35;12.38;;;3.90;;
71769;SDS011;66386;52.122;5.420;2023-05-31T15:10:01;8.68;;;3.67;;
71769;SDS011;66386;52.122;5.420;2023-05-31T15:12:29;7.03;;;3.80;;
71769;SDS011;66386;52.122;5.420;2023-05-31T15:14:55;8.98;;;3.63;;
71769;SDS011;66386;52.122;5.420;2023-05-31T15:17:22;6.40;;;3.90;;